createdAt,value
2022-10-23T00:01:23.213Z,15.20
2022-10-23T00:03:54.428Z,15.30
2022-10-23T00:06:21.153Z,15.30
2022-10-23T00:08:48.187Z,15.30
2022-10-23T00:11:16.588Z,15.30
2022-10-23T00:13:43.380Z,15.30
2022-10-23T00:16:10.081Z,15.30
2022-10-23T00:18:38.184Z,15.30
2022-10-23T00:21:06.734Z,15.30
2022-10-23T00:23:33.405Z,15.30
2022-10-23T00:26:00.462Z,15.30
2022-10-23T00:28:27.185Z,15.30
2022-10-23T00:30:53.861Z,15.30
2022-10-23T00:33:21.745Z,15.30
2022-10-23T00:35:48.504Z,15.20
2022-10-23T00:38:15.213Z,15.30
2022-10-23T00:40:44.050Z,15.30
2022-10-23T00:43:18.744Z,15.30
2022-10-23T00:45:45.556Z,15.30
2022-10-23T00:48:12.484Z,15.20
2022-10-23T00:50:39.284Z,15.30
2022-10-23T00:53:06.051Z,15.30
2022-10-23T00:55:33.006Z,15.30
2022-10-23T00:57:59.797Z,15.30
2022-10-23T01:00:28.535Z,15.30
2022-10-23T01:02:55.679Z,15.20
2022-10-23T01:05:25.336Z,15.30
2022-10-23T01:07:57.993Z,15.30
2022-10-23T01:10:34.741Z,15.30
2022-10-23T01:13:22.932Z,15.30
2022-10-23T01:15:51.877Z,15.30
2022-10-23T01:18:28.815Z,15.30
2022-10-23T01:21:26.003Z,15.30
2022-10-23T01:24:26.855Z,15.30
2022-10-23T01:27:12.116Z,15.30
2022-10-23T01:29:44.546Z,15.30
2022-10-23T01:32:24.591Z,15.30
2022-10-23T01:34:57.481Z,15.30
2022-10-23T01:37:35.587Z,15.40
2022-10-23T01:40:03.817Z,15.30
2022-10-23T01:42:36.800Z,15.40
2022-10-23T01:45:08.514Z,15.40
2022-10-23T01:47:35.517Z,15.40
2022-10-23T01:50:03.640Z,15.40
2022-10-23T01:52:30.438Z,15.40
2022-10-23T01:54:59.198Z,15.40
2022-10-23T01:57:25.985Z,15.40
2022-10-23T01:59:55.726Z,15.40
2022-10-23T02:02:22.780Z,15.40
2022-10-23T02:05:18.649Z,15.40
2022-10-23T02:07:45.491Z,15.40
2022-10-23T02:10:12.428Z,15.40
2022-10-23T02:12:41.074Z,15.40
2022-10-23T02:15:16.798Z,15.40
2022-10-23T02:18:09.686Z,15.40
2022-10-23T02:23:17.545Z,15.40
2022-10-23T02:26:00.705Z,15.40
2022-10-23T02:28:30.513Z,15.40
2022-10-23T02:30:57.531Z,15.40
2022-10-23T02:33:24.303Z,15.40
2022-10-23T02:35:50.964Z,15.40
2022-10-23T02:38:33.836Z,15.40
2022-10-23T02:41:31.337Z,15.40
2022-10-23T02:44:22.575Z,15.40
2022-10-23T02:46:58.101Z,15.40
2022-10-23T02:50:02.431Z,15.40
2022-10-23T02:52:53.974Z,15.40
2022-10-23T02:55:39.454Z,15.40
2022-10-23T02:58:28.701Z,15.30
2022-10-23T03:01:10.923Z,15.40
2022-10-23T03:03:54.303Z,15.40
2022-10-23T03:06:21.936Z,15.30
2022-10-23T03:08:59.442Z,15.40
2022-10-23T03:11:26.280Z,15.30
2022-10-23T03:13:52.942Z,15.40
2022-10-23T03:16:19.632Z,15.30
2022-10-23T03:18:46.326Z,15.30
2022-10-23T03:21:13.040Z,15.30
2022-10-23T03:23:39.781Z,15.30
2022-10-23T03:26:06.501Z,15.30
2022-10-23T03:28:33.214Z,15.30
2022-10-23T03:31:02.121Z,15.40
2022-10-23T03:33:29.873Z,15.40
2022-10-23T03:35:56.550Z,15.40
2022-10-23T03:38:23.194Z,15.40
2022-10-23T03:40:49.918Z,15.40
2022-10-23T03:43:16.598Z,15.40
2022-10-23T03:45:43.590Z,15.40
2022-10-23T03:48:10.753Z,15.40
2022-10-23T03:50:37.434Z,15.30
2022-10-23T03:53:04.118Z,15.40
2022-10-23T03:55:31.760Z,15.40
2022-10-23T03:57:58.520Z,15.40
2022-10-23T04:00:25.205Z,15.40
2022-10-23T04:02:51.884Z,15.40
2022-10-23T04:05:18.665Z,15.40
2022-10-23T04:07:45.395Z,15.40
2022-10-23T04:10:12.093Z,15.40
2022-10-23T04:12:38.785Z,15.40
2022-10-23T04:15:05.857Z,15.40
2022-10-23T04:17:32.619Z,15.50
2022-10-23T04:19:59.304Z,15.50
2022-10-23T04:22:28.296Z,15.50
2022-10-23T04:24:55.603Z,15.50
2022-10-23T04:27:22.275Z,15.50
2022-10-23T04:29:49.279Z,15.50
2022-10-23T04:32:16.065Z,15.50
2022-10-23T04:34:42.736Z,15.40
2022-10-23T04:37:09.434Z,15.50
2022-10-23T04:39:36.096Z,15.50
2022-10-23T04:42:02.769Z,15.50
2022-10-23T04:44:29.517Z,15.50
2022-10-23T04:46:56.190Z,15.50
2022-10-23T04:49:22.948Z,15.50
2022-10-23T04:51:49.721Z,15.50
2022-10-23T04:54:16.391Z,15.50
2022-10-23T04:56:43.100Z,15.50
2022-10-23T04:59:09.855Z,15.50
2022-10-23T05:01:36.659Z,15.50
2022-10-23T05:04:03.453Z,15.50
2022-10-23T05:06:30.138Z,15.50
2022-10-23T05:08:56.852Z,15.50
2022-10-23T05:11:23.512Z,15.50
2022-10-23T05:13:50.241Z,15.50
2022-10-23T05:16:32.450Z,15.50
2022-10-23T05:18:59.860Z,15.50
2022-10-23T05:21:28.665Z,15.60
2022-10-23T05:23:55.428Z,15.60
2022-10-23T05:26:22.474Z,15.60
2022-10-23T05:28:49.467Z,15.70
2022-10-23T05:31:16.122Z,15.70
2022-10-23T05:33:42.818Z,15.70
2022-10-23T05:36:09.722Z,15.70
2022-10-23T05:38:36.499Z,15.70
2022-10-23T05:41:03.290Z,15.80
2022-10-23T05:43:31.247Z,15.80
2022-10-23T05:45:58.495Z,15.80
2022-10-23T05:48:40.867Z,15.80
2022-10-23T05:51:09.000Z,15.80
2022-10-23T05:53:38.753Z,15.80
2022-10-23T05:56:08.733Z,15.80
2022-10-23T05:58:35.471Z,15.80
2022-10-23T06:01:06.789Z,15.70
2022-10-23T06:03:33.652Z,15.70
2022-10-23T06:06:00.374Z,15.60
2022-10-23T06:08:27.145Z,15.60
2022-10-23T06:10:53.849Z,15.60
2022-10-23T06:13:20.509Z,15.60
2022-10-23T06:15:47.290Z,15.60
2022-10-23T06:18:13.954Z,15.60
2022-10-23T06:20:40.670Z,15.60
2022-10-23T06:23:07.620Z,15.60
2022-10-23T06:25:34.291Z,15.60
2022-10-23T06:28:00.955Z,15.60
2022-10-23T06:30:27.776Z,15.60
2022-10-23T06:32:54.514Z,15.70
2022-10-23T06:35:21.194Z,15.70
2022-10-23T06:37:47.995Z,15.70
2022-10-23T06:40:14.721Z,15.70
2022-10-23T06:42:41.674Z,15.70
2022-10-23T06:45:08.940Z,15.80
2022-10-23T06:47:35.600Z,15.80
2022-10-23T06:50:02.313Z,15.70
2022-10-23T06:52:47.849Z,15.50
2022-10-23T06:55:14.992Z,15.40
2022-10-23T06:57:42.451Z,15.40
2022-10-23T07:00:10.061Z,15.30
2022-10-23T07:02:36.826Z,15.30
2022-10-23T07:05:03.849Z,15.30
2022-10-23T07:07:31.139Z,15.30
2022-10-23T07:09:57.951Z,15.30
2022-10-23T07:12:24.721Z,15.20
2022-10-23T07:14:51.431Z,15.20
2022-10-23T07:17:18.159Z,15.20
2022-10-23T07:19:44.858Z,15.20
2022-10-23T07:22:14.883Z,15.10
2022-10-23T07:24:42.718Z,15.10
2022-10-23T07:27:09.541Z,15.10
2022-10-23T07:29:36.429Z,15.10
2022-10-23T07:32:04.476Z,15.10
2022-10-23T07:34:32.154Z,15.20
2022-10-23T07:36:58.960Z,15.20
2022-10-23T07:39:25.805Z,15.20
2022-10-23T07:41:52.575Z,15.20
2022-10-23T07:44:21.062Z,15.20
2022-10-23T07:46:49.819Z,15.20
2022-10-23T07:49:16.540Z,15.20
2022-10-23T07:51:45.533Z,15.20
2022-10-23T07:54:15.562Z,15.30
2022-10-23T07:56:42.217Z,15.30
2022-10-23T07:59:14.248Z,15.30
2022-10-23T08:01:42.616Z,15.30
2022-10-23T08:04:10.027Z,15.30
2022-10-23T08:06:36.798Z,15.40
2022-10-23T08:09:06.417Z,15.40
2022-10-23T08:11:35.664Z,15.40
2022-10-23T08:14:04.575Z,15.50
2022-10-23T08:16:32.597Z,15.40
2022-10-23T08:18:59.377Z,15.50
2022-10-23T08:21:26.187Z,15.50
2022-10-23T08:23:56.666Z,15.50
2022-10-23T08:26:24.651Z,15.50
2022-10-23T08:28:52.158Z,15.60
2022-10-23T08:31:21.746Z,15.60
2022-10-23T08:36:21.306Z,15.60
2022-10-23T08:38:48.250Z,15.60
2022-10-23T08:41:19.360Z,15.60
2022-10-23T08:43:47.643Z,15.60
2022-10-23T08:46:16.036Z,15.60
2022-10-23T08:48:51.486Z,15.60
2022-10-23T08:51:36.289Z,15.60
2022-10-23T08:54:07.302Z,15.60
2022-10-23T08:56:35.445Z,15.60
2022-10-23T08:59:11.336Z,15.60
2022-10-23T09:01:40.873Z,15.60
2022-10-23T09:04:09.179Z,15.50
2022-10-23T09:06:54.551Z,15.60
2022-10-23T09:09:26.992Z,15.60
2022-10-23T09:12:05.927Z,15.60
2022-10-23T09:14:51.426Z,15.60
2022-10-23T09:17:24.932Z,15.60
2022-10-23T09:19:56.333Z,15.70
2022-10-23T09:22:23.079Z,15.60
2022-10-23T09:24:53.692Z,15.70
2022-10-23T09:27:20.950Z,15.70
2022-10-23T09:29:49.696Z,15.70
2022-10-23T09:32:16.539Z,15.80
2022-10-23T09:34:54.696Z,15.80
2022-10-23T09:37:26.881Z,15.80
2022-10-23T09:40:16.753Z,15.80
2022-10-23T09:43:17.689Z,15.90
2022-10-23T09:45:44.480Z,15.90
2022-10-23T09:48:13.168Z,15.90
2022-10-23T09:50:50.790Z,15.90
2022-10-23T09:53:33.680Z,15.90
2022-10-23T09:56:02.934Z,15.90
2022-10-23T09:58:34.922Z,16.00
2022-10-23T10:01:01.937Z,16.00
2022-10-23T10:03:28.686Z,16.00
2022-10-23T10:05:57.704Z,16.00
2022-10-23T10:08:46.535Z,16.10
2022-10-23T10:11:17.895Z,16.10
2022-10-23T10:14:22.797Z,16.10
2022-10-23T10:17:06.948Z,16.20
2022-10-23T10:19:40.974Z,16.10
2022-10-23T10:22:29.344Z,16.20
2022-10-23T10:25:12.376Z,16.20
2022-10-23T10:27:48.621Z,16.10
2022-10-23T10:30:18.672Z,16.10
2022-10-23T10:32:57.132Z,16.00
2022-10-23T10:35:39.289Z,16.00
2022-10-23T10:38:24.566Z,16.00
2022-10-23T10:40:57.313Z,16.00
2022-10-23T10:43:40.131Z,16.00
2022-10-23T10:46:28.339Z,16.00
2022-10-23T10:48:59.814Z,16.10
2022-10-23T10:51:44.784Z,16.20
2022-10-23T10:54:17.770Z,16.20
2022-10-23T10:56:44.742Z,16.30
2022-10-23T10:59:29.119Z,16.40
2022-10-23T11:02:17.266Z,16.50
2022-10-23T11:04:52.939Z,16.60
2022-10-23T11:07:22.171Z,16.70
2022-10-23T11:09:48.957Z,16.80
2022-10-23T11:12:25.159Z,16.80
2022-10-23T11:14:52.073Z,16.80
2022-10-23T11:17:19.404Z,16.80
2022-10-23T11:19:49.331Z,16.90
2022-10-23T11:22:26.896Z,16.90
2022-10-23T11:25:02.609Z,16.90
2022-10-23T11:27:48.291Z,17.00
2022-10-23T11:30:22.672Z,17.00
2022-10-23T11:33:07.941Z,17.00
2022-10-23T11:35:52.913Z,17.00
2022-10-23T11:38:40.687Z,17.00
2022-10-23T11:41:22.268Z,17.10
2022-10-23T11:43:57.201Z,17.10
2022-10-23T11:46:25.406Z,17.20
2022-10-23T11:48:52.660Z,17.20
2022-10-23T11:51:38.231Z,17.20
2022-10-23T11:54:11.983Z,17.20
2022-10-23T11:56:39.519Z,17.30
2022-10-23T11:59:26.498Z,17.30
2022-10-23T12:01:53.359Z,17.50
2022-10-23T12:04:27.596Z,17.50
2022-10-23T12:06:56.876Z,17.60
2022-10-23T12:09:24.998Z,17.70
2022-10-23T12:12:10.264Z,17.80
2022-10-23T12:14:41.147Z,17.90
2022-10-23T12:17:22.886Z,18.00
2022-10-23T12:20:02.086Z,18.00
2022-10-23T12:22:40.498Z,18.10
2022-10-23T12:25:35.113Z,18.10
2022-10-23T12:28:31.772Z,18.00
2022-10-23T12:31:13.889Z,18.00
2022-10-23T12:34:06.731Z,18.00
2022-10-23T12:36:54.624Z,18.00
2022-10-23T12:39:31.557Z,18.10
2022-10-23T12:41:59.655Z,18.00
2022-10-23T12:44:26.396Z,18.00
2022-10-23T12:47:13.688Z,18.00
2022-10-23T12:49:40.424Z,18.10
2022-10-23T12:52:15.753Z,18.20
2022-10-23T12:54:42.555Z,18.20
2022-10-23T12:57:28.876Z,18.20
2022-10-23T13:00:06.120Z,18.30
2022-10-23T13:02:33.505Z,18.30
2022-10-23T13:05:02.016Z,18.40
2022-10-23T13:07:34.033Z,18.60
2022-10-23T13:10:01.789Z,18.50
2022-10-23T13:12:30.643Z,18.50
2022-10-23T13:15:07.445Z,18.40
2022-10-23T13:17:39.778Z,18.40
2022-10-23T13:20:26.470Z,18.30
2022-10-23T13:22:59.314Z,18.30
2022-10-23T13:25:29.708Z,18.30
2022-10-23T13:28:08.646Z,18.30
2022-10-23T13:30:40.387Z,18.40
2022-10-23T13:33:20.604Z,18.50
2022-10-23T13:36:05.467Z,18.40
2022-10-23T13:38:33.910Z,18.50
2022-10-23T13:41:01.589Z,18.50
2022-10-23T13:43:28.914Z,18.60
2022-10-23T13:45:55.762Z,18.70
2022-10-23T13:48:22.608Z,18.70
2022-10-23T13:50:49.395Z,18.70
2022-10-23T13:53:16.241Z,18.60
2022-10-23T13:55:44.252Z,18.60
2022-10-23T13:58:11.157Z,18.60
2022-10-23T14:00:38.064Z,18.70
2022-10-23T14:03:05.165Z,18.80
2022-10-23T14:05:32.254Z,18.90
2022-10-23T14:07:58.982Z,19.00
2022-10-23T14:10:27.638Z,19.00
2022-10-23T14:12:55.102Z,19.00
2022-10-23T14:15:22.101Z,18.90
2022-10-23T14:17:48.952Z,19.00
2022-10-23T14:20:18.418Z,19.00
2022-10-23T14:22:46.420Z,18.90
2022-10-23T14:25:15.190Z,19.00
2022-10-23T14:27:41.853Z,19.00
2022-10-23T14:30:09.233Z,19.10
2022-10-23T14:32:35.921Z,19.10
2022-10-23T14:35:03.900Z,19.20
2022-10-23T14:37:34.001Z,19.40
2022-10-23T14:40:00.839Z,19.50
2022-10-23T14:42:31.710Z,19.60
2022-10-23T14:45:03.506Z,19.70
2022-10-23T14:47:30.271Z,19.80
2022-10-23T14:49:57.338Z,20.00
2022-10-23T14:52:24.391Z,20.10
2022-10-23T14:54:53.151Z,20.00
2022-10-23T14:57:21.804Z,19.90
2022-10-23T14:59:49.254Z,19.80
2022-10-23T15:02:16.512Z,19.60
2022-10-23T15:04:45.295Z,19.40
2022-10-23T15:07:12.106Z,19.10
2022-10-23T15:09:39.672Z,19.00
2022-10-23T15:12:07.187Z,18.90
2022-10-23T15:14:34.617Z,18.80
2022-10-23T15:17:01.421Z,18.80
2022-10-23T15:19:28.234Z,18.80
2022-10-23T15:21:55.003Z,18.70
2022-10-23T15:24:21.875Z,18.60
2022-10-23T15:26:49.841Z,18.60
2022-10-23T15:29:16.614Z,18.50
2022-10-23T15:31:45.283Z,18.50
2022-10-23T15:34:17.906Z,18.40
2022-10-23T15:36:45.112Z,18.30
2022-10-23T15:39:12.014Z,18.30
2022-10-23T15:41:40.484Z,18.20
2022-10-23T15:44:07.596Z,18.20
2022-10-23T15:46:34.494Z,18.20
2022-10-23T15:49:01.209Z,18.10
2022-10-23T15:51:27.930Z,18.10
2022-10-23T15:53:56.955Z,18.00
2022-10-23T15:56:24.552Z,18.00
2022-10-23T15:58:51.278Z,17.80
2022-10-23T16:01:18.195Z,17.50
2022-10-23T16:03:45.080Z,17.30
2022-10-23T16:06:13.431Z,17.20
2022-10-23T16:08:40.202Z,17.10
2022-10-23T16:11:22.323Z,17.10
2022-10-23T16:13:49.382Z,16.70
2022-10-23T16:16:16.438Z,15.80
2022-10-23T16:18:44.167Z,15.00
2022-10-23T16:21:22.118Z,14.50
2022-10-23T16:23:49.183Z,14.20
2022-10-23T16:26:16.254Z,14.10
2022-10-23T16:28:46.299Z,13.90
2022-10-23T16:31:19.368Z,13.90
2022-10-23T16:33:48.026Z,13.90
2022-10-23T16:36:14.809Z,13.80
2022-10-23T16:38:41.532Z,13.80
2022-10-23T16:41:08.230Z,13.80
2022-10-23T16:43:34.967Z,13.80
2022-10-23T16:46:19.359Z,13.80
2022-10-23T16:48:46.274Z,13.80
2022-10-23T16:51:14.697Z,13.80
2022-10-23T16:53:41.815Z,13.90
2022-10-23T16:56:09.695Z,13.90
2022-10-23T16:58:36.684Z,13.90
2022-10-23T17:01:11.818Z,14.00
2022-10-23T17:03:40.805Z,14.00
2022-10-23T17:06:11.252Z,14.00
2022-10-23T17:08:38.382Z,14.00
2022-10-23T17:11:10.418Z,14.00
2022-10-23T17:13:39.312Z,14.00
2022-10-23T17:16:11.081Z,13.90
2022-10-23T17:18:41.368Z,13.90
2022-10-23T17:21:11.507Z,13.90
2022-10-23T17:23:38.217Z,13.90
2022-10-23T17:26:07.683Z,13.90
2022-10-23T17:28:39.784Z,13.80
2022-10-23T17:31:19.373Z,13.80
2022-10-23T17:33:46.325Z,13.80
2022-10-23T17:36:13.626Z,13.70
2022-10-23T17:38:40.664Z,13.70
2022-10-23T17:41:08.002Z,13.70
2022-10-23T17:43:35.118Z,13.70
2022-10-23T17:46:03.677Z,13.70
2022-10-23T17:48:30.446Z,13.80
2022-10-23T17:51:04.304Z,13.70
2022-10-23T17:53:30.926Z,13.70
2022-10-23T17:55:57.736Z,13.70
2022-10-23T17:58:24.422Z,13.70
2022-10-23T18:00:52.785Z,13.70
2022-10-23T18:03:20.121Z,13.70
2022-10-23T18:05:46.950Z,13.80
2022-10-23T18:08:13.834Z,13.70
2022-10-23T18:10:40.578Z,13.70
2022-10-23T18:13:07.341Z,13.70
2022-10-23T18:15:35.701Z,13.80
2022-10-23T18:18:07.770Z,13.80
2022-10-23T18:20:39.935Z,13.80
2022-10-23T18:23:07.237Z,13.80
2022-10-23T18:25:34.119Z,13.70
2022-10-23T18:28:02.487Z,13.70
2022-10-23T18:30:29.625Z,13.70
2022-10-23T18:32:58.134Z,13.70
2022-10-23T18:35:25.210Z,13.80
2022-10-23T18:37:52.065Z,13.80
2022-10-23T18:40:19.432Z,13.80
2022-10-23T18:42:46.902Z,13.80
2022-10-23T18:45:14.082Z,13.80
2022-10-23T18:47:41.002Z,13.80
2022-10-23T18:50:08.586Z,13.80
2022-10-23T18:52:35.696Z,13.80
2022-10-23T18:55:04.875Z,13.80
2022-10-23T18:57:33.510Z,13.80
2022-10-23T19:00:00.884Z,13.80
2022-10-23T19:02:27.858Z,13.80
2022-10-23T19:04:54.835Z,13.70
2022-10-23T19:07:21.621Z,13.80
2022-10-23T19:09:48.536Z,13.70
2022-10-23T19:12:15.434Z,13.70
2022-10-23T19:14:42.317Z,13.70
2022-10-23T19:17:20.806Z,13.70
2022-10-23T19:19:54.804Z,13.70
2022-10-23T19:22:21.523Z,13.70
2022-10-23T19:24:57.993Z,13.70
2022-10-23T19:27:25.383Z,13.70
2022-10-23T19:29:52.287Z,13.70
2022-10-23T19:32:19.102Z,13.60
2022-10-23T19:34:45.836Z,13.50
2022-10-23T19:39:41.004Z,13.50
2022-10-23T19:42:08.682Z,13.50
2022-10-23T19:44:35.546Z,13.60
2022-10-23T19:47:03.371Z,13.60
2022-10-23T19:49:30.222Z,13.70
2022-10-23T19:51:56.938Z,13.70
2022-10-23T19:54:23.634Z,13.70
2022-10-23T19:56:50.561Z,13.70
2022-10-23T19:59:17.456Z,13.80
2022-10-23T20:01:47.758Z,13.80
2022-10-23T20:04:16.724Z,13.90
2022-10-23T20:06:43.533Z,13.90
2022-10-23T20:09:10.427Z,13.90
2022-10-23T20:11:38.292Z,13.90
2022-10-23T20:14:05.100Z,13.90
2022-10-23T20:16:34.443Z,13.90
2022-10-23T20:19:11.826Z,13.90
2022-10-23T20:21:39.380Z,13.90
2022-10-23T20:24:06.561Z,13.90
2022-10-23T20:26:33.327Z,13.90
2022-10-23T20:29:00.033Z,13.90
2022-10-23T20:31:27.117Z,13.90
2022-10-23T20:33:54.086Z,14.00
2022-10-23T20:36:25.769Z,14.00
2022-10-23T20:38:52.551Z,14.00
2022-10-23T20:41:19.693Z,14.00
2022-10-23T20:43:46.625Z,14.00
2022-10-23T20:46:13.380Z,14.00
2022-10-23T20:48:41.566Z,14.00
2022-10-23T20:51:10.476Z,14.00
2022-10-23T20:53:38.383Z,14.00
2022-10-23T20:56:09.514Z,14.00
2022-10-23T20:58:36.320Z,14.00
2022-10-23T21:01:04.875Z,14.00
2022-10-23T21:03:31.721Z,14.00
2022-10-23T21:06:06.077Z,14.00
2022-10-23T21:08:32.941Z,14.00
2022-10-23T21:10:59.764Z,13.90
2022-10-23T21:13:26.837Z,13.80
2022-10-23T21:15:53.653Z,14.00
2022-10-23T21:18:41.070Z,14.10
2022-10-23T21:21:08.412Z,14.20
2022-10-23T21:23:35.581Z,14.20
2022-10-23T21:26:08.404Z,14.20
2022-10-23T21:28:35.159Z,14.30
2022-10-23T21:31:03.598Z,14.30
2022-10-23T21:33:30.367Z,14.40
2022-10-23T21:35:58.550Z,14.40
2022-10-23T21:38:31.508Z,14.50
2022-10-23T21:41:08.453Z,14.50
2022-10-23T21:43:35.242Z,14.50
2022-10-23T21:46:06.007Z,14.50
2022-10-23T21:48:32.884Z,14.50
2022-10-23T21:51:00.014Z,14.60
2022-10-23T21:53:26.870Z,14.70
2022-10-23T21:55:53.631Z,14.70
2022-10-23T21:58:20.332Z,14.60
2022-10-23T22:00:47.091Z,14.60
2022-10-23T22:03:13.847Z,14.60
2022-10-23T22:05:40.511Z,14.60
2022-10-23T22:08:07.326Z,14.60
2022-10-23T22:10:35.045Z,14.50
2022-10-23T22:13:01.763Z,14.50
2022-10-23T22:15:28.506Z,14.50
2022-10-23T22:17:55.358Z,14.50
2022-10-23T22:20:22.242Z,14.40
2022-10-23T22:22:48.976Z,14.40
2022-10-23T22:25:15.757Z,14.40
2022-10-23T22:27:42.830Z,14.30
2022-10-23T22:30:10.153Z,14.40
2022-10-23T22:32:36.964Z,14.30
2022-10-23T22:35:04.007Z,14.30
2022-10-23T22:37:30.835Z,14.30
2022-10-23T22:39:57.629Z,14.30
2022-10-23T22:42:24.358Z,14.30
2022-10-23T22:44:51.035Z,14.30
2022-10-23T22:47:17.835Z,14.30
2022-10-23T22:49:44.490Z,14.30
2022-10-23T22:52:11.140Z,14.30
2022-10-23T22:54:37.917Z,14.30
2022-10-23T22:57:04.640Z,14.30
2022-10-23T22:59:31.433Z,14.30
2022-10-23T23:01:58.105Z,14.30
2022-10-23T23:04:40.231Z,14.30
2022-10-23T23:07:11.328Z,14.40
2022-10-23T23:09:42.400Z,14.40
2022-10-23T23:12:10.614Z,14.40
2022-10-23T23:14:37.455Z,14.40
2022-10-23T23:17:04.479Z,14.40
2022-10-23T23:19:31.201Z,14.40
2022-10-23T23:21:58.327Z,14.40
2022-10-23T23:24:25.398Z,14.30
2022-10-23T23:26:52.119Z,14.30
2022-10-23T23:29:18.964Z,14.40
2022-10-23T23:31:45.954Z,14.40
2022-10-23T23:34:12.661Z,14.40
2022-10-23T23:36:39.320Z,14.50
2022-10-23T23:39:05.994Z,14.50
2022-10-23T23:41:32.697Z,14.50
2022-10-23T23:43:59.394Z,14.50
2022-10-23T23:46:26.195Z,14.60
2022-10-23T23:48:52.962Z,14.50
2022-10-23T23:51:21.942Z,14.50
2022-10-23T23:53:48.984Z,14.50
2022-10-23T23:56:15.667Z,14.50
2022-10-23T23:58:42.344Z,14.50
